sensor_id;sensor_type;location;lat;lon;timestamp;P1;durP1;ratioP1;P2;durP2;ratioP2
19235;SDS011;9752;54.270;12.470;2023-03-14T00:03:09;7.80;;;6.27;;
19235;SDS011;9752;54.270;12.470;2023-03-14T00:08:11;6.60;;;6.00;;
19235;SDS011;9752;54.270;12.470;2023-03-14T00:13:13;6.30;;;5.77;;
19235;SDS011;9752;54.270;12.470;2023-03-14T00:18:17;6.23;;;5.83;;
19235;SDS011;9752;54.270;12.470;2023-03-14T00:23:19;6.40;;;5.80;;
19235;SDS011;9752;54.270;12.470;2023-03-14T00:28:22;7.23;;;6.60;;
19235;SDS011;9752;54.270;12.470;2023-03-14T00:33:25;7.07;;;6.30;;
19235;SDS011;9752;54.270;12.470;2023-03-14T00:38:27;7.77;;;6.70;;
19235;SDS011;9752;54.270;12.470;2023-03-14T00:43:29;7.87;;;6.97;;
19235;SDS011;9752;54.270;12.470;2023-03-14T00:48:36;6.73;;;6.13;;
19235;SDS011;9752;54.270;12.470;2023-03-14T00:53:38;6.73;;;5.50;;
19235;SDS011;9752;54.270;12.470;2023-03-14T00:58:42;7.03;;;6.40;;
19235;SDS011;9752;54.270;12.470;2023-03-14T01:03:50;5.90;;;5.47;;
19235;SDS011;9752;54.270;12.470;2023-03-14T01:08:55;7.23;;;6.63;;
19235;SDS011;9752;54.270;12.470;2023-03-14T01:13:57;7.13;;;6.50;;
19235;SDS011;9752;54.270;12.470;2023-03-14T01:19:04;9.23;;;6.60;;
19235;SDS011;9752;54.270;12.470;2023-03-14T01:24:06;7.73;;;6.33;;
19235;SDS011;9752;54.270;12.470;2023-03-14T01:29:08;11.27;;;6.90;;
19235;SDS011;9752;54.270;12.470;2023-03-14T01:34:17;6.43;;;5.93;;
19235;SDS011;9752;54.270;12.470;2023-03-14T01:39:19;7.60;;;6.70;;
19235;SDS011;9752;54.270;12.470;2023-03-14T01:44:22;7.67;;;6.17;;
19235;SDS011;9752;54.270;12.470;2023-03-14T01:49:26;7.17;;;6.47;;
19235;SDS011;9752;54.270;12.470;2023-03-14T01:54:36;7.40;;;6.80;;
19235;SDS011;9752;54.270;12.470;2023-03-14T01:59:43;7.40;;;6.43;;
19235;SDS011;9752;54.270;12.470;2023-03-14T02:04:50;7.67;;;6.63;;
19235;SDS011;9752;54.270;12.470;2023-03-14T02:09:56;7.73;;;7.00;;
19235;SDS011;9752;54.270;12.470;2023-03-14T02:15:04;8.17;;;7.17;;
19235;SDS011;9752;54.270;12.470;2023-03-14T02:20:30;9.37;;;7.87;;
19235;SDS011;9752;54.270;12.470;2023-03-14T02:25:39;8.30;;;7.40;;
19235;SDS011;9752;54.270;12.470;2023-03-14T02:30:46;9.50;;;8.50;;
19235;SDS011;9752;54.270;12.470;2023-03-14T02:35:50;8.73;;;8.03;;
19235;SDS011;9752;54.270;12.470;2023-03-14T02:40:54;8.30;;;7.60;;
19235;SDS011;9752;54.270;12.470;2023-03-14T02:45:58;8.20;;;7.13;;
19235;SDS011;9752;54.270;12.470;2023-03-14T02:51:04;7.80;;;6.73;;
19235;SDS011;9752;54.270;12.470;2023-03-14T02:56:07;8.00;;;6.77;;
19235;SDS011;9752;54.270;12.470;2023-03-14T03:01:13;7.73;;;7.00;;
19235;SDS011;9752;54.270;12.470;2023-03-14T03:06:17;13.10;;;7.10;;
19235;SDS011;9752;54.270;12.470;2023-03-14T03:11:19;9.20;;;7.30;;
19235;SDS011;9752;54.270;12.470;2023-03-14T03:16:23;7.57;;;6.97;;
19235;SDS011;9752;54.270;12.470;2023-03-14T03:21:29;13.17;;;7.40;;
19235;SDS011;9752;54.270;12.470;2023-03-14T03:26:33;7.33;;;6.67;;
19235;SDS011;9752;54.270;12.470;2023-03-14T03:31:41;8.83;;;7.20;;
19235;SDS011;9752;54.270;12.470;2023-03-14T03:36:46;12.07;;;7.57;;
19235;SDS011;9752;54.270;12.470;2023-03-14T03:41:50;12.33;;;7.63;;
19235;SDS011;9752;54.270;12.470;2023-03-14T03:46:54;12.70;;;8.33;;
19235;SDS011;9752;54.270;12.470;2023-03-14T03:51:56;11.93;;;8.80;;
19235;SDS011;9752;54.270;12.470;2023-03-14T03:56:57;9.30;;;8.33;;
19235;SDS011;9752;54.270;12.470;2023-03-14T04:02:02;9.60;;;8.27;;
19235;SDS011;9752;54.270;12.470;2023-03-14T04:07:04;10.77;;;8.73;;
19235;SDS011;9752;54.270;12.470;2023-03-14T04:12:06;9.10;;;8.20;;
19235;SDS011;9752;54.270;12.470;2023-03-14T04:17:29;10.70;;;8.70;;
19235;SDS011;9752;54.270;12.470;2023-03-14T04:22:31;10.30;;;9.00;;
19235;SDS011;9752;54.270;12.470;2023-03-14T04:27:33;8.97;;;8.07;;
19235;SDS011;9752;54.270;12.470;2023-03-14T04:32:39;9.77;;;7.97;;
19235;SDS011;9752;54.270;12.470;2023-03-14T04:37:41;12.27;;;7.50;;
19235;SDS011;9752;54.270;12.470;2023-03-14T04:42:44;8.13;;;7.33;;
19235;SDS011;9752;54.270;12.470;2023-03-14T04:47:48;9.03;;;8.20;;
19235;SDS011;9752;54.270;12.470;2023-03-14T04:52:53;12.60;;;8.03;;
19235;SDS011;9752;54.270;12.470;2023-03-14T04:57:55;14.17;;;8.77;;
19235;SDS011;9752;54.270;12.470;2023-03-14T05:02:59;7.70;;;6.80;;
19235;SDS011;9752;54.270;12.470;2023-03-14T05:08:04;12.17;;;7.20;;
19235;SDS011;9752;54.270;12.470;2023-03-14T05:13:14;10.10;;;6.03;;
19235;SDS011;9752;54.270;12.470;2023-03-14T05:18:36;10.27;;;6.70;;
19235;SDS011;9752;54.270;12.470;2023-03-14T05:23:47;11.30;;;7.33;;
19235;SDS011;9752;54.270;12.470;2023-03-14T05:29:09;8.83;;;7.50;;
19235;SDS011;9752;54.270;12.470;2023-03-14T05:34:27;9.97;;;7.33;;
19235;SDS011;9752;54.270;12.470;2023-03-14T05:39:41;12.37;;;7.53;;
19235;SDS011;9752;54.270;12.470;2023-03-14T05:45:03;9.27;;;7.50;;
19235;SDS011;9752;54.270;12.470;2023-03-14T05:50:26;8.63;;;7.87;;
19235;SDS011;9752;54.270;12.470;2023-03-14T05:55:55;10.17;;;6.83;;
19235;SDS011;9752;54.270;12.470;2023-03-14T06:01:20;10.30;;;7.77;;
19235;SDS011;9752;54.270;12.470;2023-03-14T06:06:41;6.97;;;6.30;;
19235;SDS011;9752;54.270;12.470;2023-03-14T06:11:44;7.80;;;7.07;;
19235;SDS011;9752;54.270;12.470;2023-03-14T06:16:47;15.60;;;8.30;;
19235;SDS011;9752;54.270;12.470;2023-03-14T06:21:52;10.77;;;7.97;;
19235;SDS011;9752;54.270;12.470;2023-03-14T06:26:54;8.17;;;7.33;;
19235;SDS011;9752;54.270;12.470;2023-03-14T06:31:56;8.13;;;7.50;;
19235;SDS011;9752;54.270;12.470;2023-03-14T06:36:59;9.77;;;8.00;;
19235;SDS011;9752;54.270;12.470;2023-03-14T06:42:01;8.53;;;7.90;;
19235;SDS011;9752;54.270;12.470;2023-03-14T06:47:03;8.50;;;7.80;;
19235;SDS011;9752;54.270;12.470;2023-03-14T06:52:07;11.63;;;8.60;;
19235;SDS011;9752;54.270;12.470;2023-03-14T06:57:09;9.83;;;8.07;;
19235;SDS011;9752;54.270;12.470;2023-03-14T07:02:11;9.60;;;8.73;;
19235;SDS011;9752;54.270;12.470;2023-03-14T07:07:16;9.83;;;8.93;;
19235;SDS011;9752;54.270;12.470;2023-03-14T07:12:18;9.63;;;8.73;;
19235;SDS011;9752;54.270;12.470;2023-03-14T07:17:20;10.57;;;9.40;;
19235;SDS011;9752;54.270;12.470;2023-03-14T07:22:23;10.63;;;9.63;;
19235;SDS011;9752;54.270;12.470;2023-03-14T07:27:24;10.87;;;9.77;;
19235;SDS011;9752;54.270;12.470;2023-03-14T07:32:26;10.67;;;9.87;;
19235;SDS011;9752;54.270;12.470;2023-03-14T07:37:29;10.50;;;9.70;;
19235;SDS011;9752;54.270;12.470;2023-03-14T07:42:34;10.43;;;9.73;;
19235;SDS011;9752;54.270;12.470;2023-03-14T07:47:49;10.67;;;10.00;;
19235;SDS011;9752;54.270;12.470;2023-03-14T07:52:53;11.63;;;10.23;;
19235;SDS011;9752;54.270;12.470;2023-03-14T07:57:55;9.33;;;8.63;;
19235;SDS011;9752;54.270;12.470;2023-03-14T08:02:56;8.17;;;7.60;;
19235;SDS011;9752;54.270;12.470;2023-03-14T08:07:59;8.27;;;7.50;;
19235;SDS011;9752;54.270;12.470;2023-03-14T08:13:01;9.07;;;6.60;;
19235;SDS011;9752;54.270;12.470;2023-03-14T08:18:03;8.60;;;7.87;;
19235;SDS011;9752;54.270;12.470;2023-03-14T08:23:06;11.27;;;10.57;;
19235;SDS011;9752;54.270;12.470;2023-03-14T08:28:08;11.97;;;11.20;;
19235;SDS011;9752;54.270;12.470;2023-03-14T08:33:10;11.13;;;10.53;;
19235;SDS011;9752;54.270;12.470;2023-03-14T08:38:12;11.23;;;10.37;;
19235;SDS011;9752;54.270;12.470;2023-03-14T08:43:16;9.93;;;9.33;;
19235;SDS011;9752;54.270;12.470;2023-03-14T08:48:17;10.60;;;9.67;;
19235;SDS011;9752;54.270;12.470;2023-03-14T08:53:21;10.53;;;9.83;;
19235;SDS011;9752;54.270;12.470;2023-03-14T08:58:23;10.40;;;9.70;;
19235;SDS011;9752;54.270;12.470;2023-03-14T09:03:25;10.93;;;9.93;;
19235;SDS011;9752;54.270;12.470;2023-03-14T09:08:28;11.00;;;10.17;;
19235;SDS011;9752;54.270;12.470;2023-03-14T09:13:29;12.00;;;10.87;;
19235;SDS011;9752;54.270;12.470;2023-03-14T09:18:31;12.80;;;11.57;;
19235;SDS011;9752;54.270;12.470;2023-03-14T09:23:34;13.03;;;11.90;;
19235;SDS011;9752;54.270;12.470;2023-03-14T09:28:36;11.20;;;10.30;;
19235;SDS011;9752;54.270;12.470;2023-03-14T09:33:38;10.50;;;9.63;;
19235;SDS011;9752;54.270;12.470;2023-03-14T09:38:41;10.27;;;9.63;;
19235;SDS011;9752;54.270;12.470;2023-03-14T09:43:43;12.13;;;11.23;;
19235;SDS011;9752;54.270;12.470;2023-03-14T09:48:47;11.00;;;10.03;;
19235;SDS011;9752;54.270;12.470;2023-03-14T09:53:50;11.57;;;10.50;;
19235;SDS011;9752;54.270;12.470;2023-03-14T09:58:53;12.30;;;11.33;;
19235;SDS011;9752;54.270;12.470;2023-03-14T10:03:58;12.83;;;11.83;;
19235;SDS011;9752;54.270;12.470;2023-03-14T10:09:05;12.60;;;11.40;;
19235;SDS011;9752;54.270;12.470;2023-03-14T10:14:07;12.43;;;11.30;;
19235;SDS011;9752;54.270;12.470;2023-03-14T10:19:10;12.57;;;11.67;;
19235;SDS011;9752;54.270;12.470;2023-03-14T10:24:21;13.40;;;12.50;;
19235;SDS011;9752;54.270;12.470;2023-03-14T10:29:28;12.67;;;11.90;;
19235;SDS011;9752;54.270;12.470;2023-03-14T10:34:31;12.10;;;11.23;;
19235;SDS011;9752;54.270;12.470;2023-03-14T10:39:39;13.30;;;12.50;;
19235;SDS011;9752;54.270;12.470;2023-03-14T10:44:46;12.97;;;12.10;;
19235;SDS011;9752;54.270;12.470;2023-03-14T10:49:51;13.50;;;12.53;;
19235;SDS011;9752;54.270;12.470;2023-03-14T10:54:56;14.50;;;13.70;;
19235;SDS011;9752;54.270;12.470;2023-03-14T10:59:59;12.40;;;11.80;;
19235;SDS011;9752;54.270;12.470;2023-03-14T11:05:11;14.03;;;13.10;;
19235;SDS011;9752;54.270;12.470;2023-03-14T11:10:24;13.00;;;12.40;;
19235;SDS011;9752;54.270;12.470;2023-03-14T11:15:32;14.13;;;13.20;;
19235;SDS011;9752;54.270;12.470;2023-03-14T11:20:38;14.67;;;13.87;;
19235;SDS011;9752;54.270;12.470;2023-03-14T11:25:49;15.00;;;14.00;;
19235;SDS011;9752;54.270;12.470;2023-03-14T11:30:59;14.07;;;13.13;;
19235;SDS011;9752;54.270;12.470;2023-03-14T11:36:06;19.43;;;17.83;;
19235;SDS011;9752;54.270;12.470;2023-03-14T11:41:12;23.73;;;21.40;;
19235;SDS011;9752;54.270;12.470;2023-03-14T11:46:17;20.77;;;19.10;;
19235;SDS011;9752;54.270;12.470;2023-03-14T11:51:23;20.33;;;18.80;;
19235;SDS011;9752;54.270;12.470;2023-03-14T11:56:31;19.90;;;18.60;;
19235;SDS011;9752;54.270;12.470;2023-03-14T12:01:49;18.00;;;16.83;;
19235;SDS011;9752;54.270;12.470;2023-03-14T12:06:54;20.37;;;17.67;;
19235;SDS011;9752;54.270;12.470;2023-03-14T12:11:59;17.53;;;16.43;;
19235;SDS011;9752;54.270;12.470;2023-03-14T12:17:04;17.93;;;16.83;;
19235;SDS011;9752;54.270;12.470;2023-03-14T12:22:19;18.67;;;16.77;;
19235;SDS011;9752;54.270;12.470;2023-03-14T12:27:46;17.67;;;16.33;;
19235;SDS011;9752;54.270;12.470;2023-03-14T12:49:46;18.87;;;17.13;;
19235;SDS011;9752;54.270;12.470;2023-03-14T12:54:49;15.90;;;14.63;;
19235;SDS011;9752;54.270;12.470;2023-03-14T13:00:00;16.73;;;15.43;;
19235;SDS011;9752;54.270;12.470;2023-03-14T13:05:11;18.50;;;16.60;;
19235;SDS011;9752;54.270;12.470;2023-03-14T13:10:16;17.10;;;15.67;;
19235;SDS011;9752;54.270;12.470;2023-03-14T13:15:26;16.73;;;15.13;;
19235;SDS011;9752;54.270;12.470;2023-03-14T13:20:32;17.57;;;15.83;;
19235;SDS011;9752;54.270;12.470;2023-03-14T13:25:36;17.90;;;16.53;;
19235;SDS011;9752;54.270;12.470;2023-03-14T13:30:39;17.13;;;15.90;;
19235;SDS011;9752;54.270;12.470;2023-03-14T13:35:44;16.40;;;15.50;;
19235;SDS011;9752;54.270;12.470;2023-03-14T13:40:47;17.07;;;15.40;;
19235;SDS011;9752;54.270;12.470;2023-03-14T13:45:51;14.60;;;13.17;;
19235;SDS011;9752;54.270;12.470;2023-03-14T13:50:58;15.20;;;13.80;;
19235;SDS011;9752;54.270;12.470;2023-03-14T13:56:02;15.40;;;14.00;;
19235;SDS011;9752;54.270;12.470;2023-03-14T14:01:10;14.93;;;12.57;;
19235;SDS011;9752;54.270;12.470;2023-03-14T14:06:30;12.73;;;11.77;;
19235;SDS011;9752;54.270;12.470;2023-03-14T14:11:36;13.87;;;12.50;;
19235;SDS011;9752;54.270;12.470;2023-03-14T14:16:43;14.37;;;13.17;;
19235;SDS011;9752;54.270;12.470;2023-03-14T14:21:49;22.07;;;13.40;;
19235;SDS011;9752;54.270;12.470;2023-03-14T14:26:51;17.83;;;13.47;;
19235;SDS011;9752;54.270;12.470;2023-03-14T14:32:00;16.63;;;13.30;;
19235;SDS011;9752;54.270;12.470;2023-03-14T14:37:04;22.43;;;14.57;;
19235;SDS011;9752;54.270;12.470;2023-03-14T14:42:12;25.63;;;15.40;;
19235;SDS011;9752;54.270;12.470;2023-03-14T14:47:15;17.10;;;14.60;;
19235;SDS011;9752;54.270;12.470;2023-03-14T14:52:22;21.20;;;15.07;;
19235;SDS011;9752;54.270;12.470;2023-03-14T14:57:37;16.60;;;13.93;;
19235;SDS011;9752;54.270;12.470;2023-03-14T15:02:45;21.10;;;13.60;;
19235;SDS011;9752;54.270;12.470;2023-03-14T15:07:50;15.83;;;12.97;;
19235;SDS011;9752;54.270;12.470;2023-03-14T15:12:52;15.50;;;13.03;;
19235;SDS011;9752;54.270;12.470;2023-03-14T15:17:54;23.07;;;13.33;;
19235;SDS011;9752;54.270;12.470;2023-03-14T15:22:57;16.53;;;14.10;;
19235;SDS011;9752;54.270;12.470;2023-03-14T15:27:58;17.60;;;14.07;;
19235;SDS011;9752;54.270;12.470;2023-03-14T15:33:00;17.37;;;13.50;;
19235;SDS011;9752;54.270;12.470;2023-03-14T15:38:03;18.23;;;14.33;;
19235;SDS011;9752;54.270;12.470;2023-03-14T15:43:05;17.90;;;13.40;;
19235;SDS011;9752;54.270;12.470;2023-03-14T15:48:08;21.13;;;15.33;;
19235;SDS011;9752;54.270;12.470;2023-03-14T15:53:17;16.10;;;14.23;;
19235;SDS011;9752;54.270;12.470;2023-03-14T15:58:20;16.63;;;15.07;;
19235;SDS011;9752;54.270;12.470;2023-03-14T16:03:22;17.83;;;15.17;;
19235;SDS011;9752;54.270;12.470;2023-03-14T16:08:25;16.40;;;14.73;;
19235;SDS011;9752;54.270;12.470;2023-03-14T16:13:28;24.43;;;15.27;;
19235;SDS011;9752;54.270;12.470;2023-03-14T16:18:31;15.20;;;14.10;;
19235;SDS011;9752;54.270;12.470;2023-03-14T16:23:36;18.40;;;14.77;;
19235;SDS011;9752;54.270;12.470;2023-03-14T16:28:38;17.83;;;14.93;;
19235;SDS011;9752;54.270;12.470;2023-03-14T16:33:40;18.10;;;14.43;;
19235;SDS011;9752;54.270;12.470;2023-03-14T16:38:43;16.37;;;14.83;;
19235;SDS011;9752;54.270;12.470;2023-03-14T16:43:46;16.10;;;14.47;;
19235;SDS011;9752;54.270;12.470;2023-03-14T16:48:50;16.47;;;14.77;;
19235;SDS011;9752;54.270;12.470;2023-03-14T16:53:54;23.03;;;15.67;;
19235;SDS011;9752;54.270;12.470;2023-03-14T16:58:55;15.03;;;13.50;;
19235;SDS011;9752;54.270;12.470;2023-03-14T17:03:57;16.83;;;15.33;;
19235;SDS011;9752;54.270;12.470;2023-03-14T17:09:00;16.07;;;14.57;;
19235;SDS011;9752;54.270;12.470;2023-03-14T17:14:03;20.03;;;15.30;;
19235;SDS011;9752;54.270;12.470;2023-03-14T17:19:05;17.87;;;15.60;;
19235;SDS011;9752;54.270;12.470;2023-03-14T17:24:08;16.87;;;15.47;;
19235;SDS011;9752;54.270;12.470;2023-03-14T17:29:10;19.33;;;14.43;;
19235;SDS011;9752;54.270;12.470;2023-03-14T17:34:12;16.60;;;14.70;;
19235;SDS011;9752;54.270;12.470;2023-03-14T17:39:15;27.87;;;15.23;;
19235;SDS011;9752;54.270;12.470;2023-03-14T17:44:16;16.90;;;15.17;;
19235;SDS011;9752;54.270;12.470;2023-03-14T17:49:18;17.47;;;15.90;;
19235;SDS011;9752;54.270;12.470;2023-03-14T17:54:21;19.23;;;16.07;;
19235;SDS011;9752;54.270;12.470;2023-03-14T17:59:23;18.43;;;16.37;;
19235;SDS011;9752;54.270;12.470;2023-03-14T18:04:25;18.70;;;16.67;;
19235;SDS011;9752;54.270;12.470;2023-03-14T18:09:28;17.20;;;15.53;;
19235;SDS011;9752;54.270;12.470;2023-03-14T18:14:30;17.70;;;16.20;;
19235;SDS011;9752;54.270;12.470;2023-03-14T18:19:32;18.17;;;16.40;;
19235;SDS011;9752;54.270;12.470;2023-03-14T18:24:35;19.97;;;16.37;;
19235;SDS011;9752;54.270;12.470;2023-03-14T18:29:37;17.30;;;15.63;;
19235;SDS011;9752;54.270;12.470;2023-03-14T18:34:39;23.80;;;15.63;;
19235;SDS011;9752;54.270;12.470;2023-03-14T18:39:43;17.00;;;15.40;;
19235;SDS011;9752;54.270;12.470;2023-03-14T18:44:44;16.83;;;14.20;;
19235;SDS011;9752;54.270;12.470;2023-03-14T18:49:46;20.73;;;16.10;;
19235;SDS011;9752;54.270;12.470;2023-03-14T18:54:49;16.73;;;15.40;;
19235;SDS011;9752;54.270;12.470;2023-03-14T18:59:51;18.97;;;16.13;;
19235;SDS011;9752;54.270;12.470;2023-03-14T19:04:55;18.17;;;16.47;;
19235;SDS011;9752;54.270;12.470;2023-03-14T19:09:58;20.10;;;17.93;;
19235;SDS011;9752;54.270;12.470;2023-03-14T19:15:00;19.27;;;17.30;;
19235;SDS011;9752;54.270;12.470;2023-03-14T19:20:02;20.27;;;18.17;;
19235;SDS011;9752;54.270;12.470;2023-03-14T19:25:07;21.30;;;19.23;;
19235;SDS011;9752;54.270;12.470;2023-03-14T19:30:10;20.30;;;18.17;;
19235;SDS011;9752;54.270;12.470;2023-03-14T19:35:12;19.03;;;17.33;;
19235;SDS011;9752;54.270;12.470;2023-03-14T19:40:16;17.97;;;16.23;;
19235;SDS011;9752;54.270;12.470;2023-03-14T19:45:19;18.27;;;16.67;;
19235;SDS011;9752;54.270;12.470;2023-03-14T19:50:21;19.07;;;16.80;;
19235;SDS011;9752;54.270;12.470;2023-03-14T19:55:26;19.70;;;17.77;;
19235;SDS011;9752;54.270;12.470;2023-03-14T20:00:28;20.27;;;18.20;;
19235;SDS011;9752;54.270;12.470;2023-03-14T20:05:30;18.17;;;16.43;;
19235;SDS011;9752;54.270;12.470;2023-03-14T20:10:34;23.20;;;16.97;;
19235;SDS011;9752;54.270;12.470;2023-03-14T20:15:36;17.33;;;15.10;;
19235;SDS011;9752;54.270;12.470;2023-03-14T20:20:39;14.30;;;13.13;;
19235;SDS011;9752;54.270;12.470;2023-03-14T20:25:43;13.70;;;12.60;;
19235;SDS011;9752;54.270;12.470;2023-03-14T20:30:52;15.13;;;11.97;;
19235;SDS011;9752;54.270;12.470;2023-03-14T20:35:54;12.63;;;11.17;;
19235;SDS011;9752;54.270;12.470;2023-03-14T20:40:59;13.37;;;11.23;;
19235;SDS011;9752;54.270;12.470;2023-03-14T20:46:01;12.63;;;11.33;;
19235;SDS011;9752;54.270;12.470;2023-03-14T20:51:03;15.50;;;11.70;;
19235;SDS011;9752;54.270;12.470;2023-03-14T20:56:07;13.77;;;11.70;;
19235;SDS011;9752;54.270;12.470;2023-03-14T21:01:09;15.97;;;11.97;;
19235;SDS011;9752;54.270;12.470;2023-03-14T21:06:11;11.90;;;10.90;;
19235;SDS011;9752;54.270;12.470;2023-03-14T21:11:14;13.33;;;12.20;;
19235;SDS011;9752;54.270;12.470;2023-03-14T21:16:16;14.97;;;11.20;;
19235;SDS011;9752;54.270;12.470;2023-03-14T21:21:18;15.97;;;11.53;;
19235;SDS011;9752;54.270;12.470;2023-03-14T21:26:22;17.47;;;11.90;;
19235;SDS011;9752;54.270;12.470;2023-03-14T21:31:24;13.63;;;12.23;;
19235;SDS011;9752;54.270;12.470;2023-03-14T21:36:25;15.03;;;13.20;;
19235;SDS011;9752;54.270;12.470;2023-03-14T21:41:29;20.37;;;13.47;;
19235;SDS011;9752;54.270;12.470;2023-03-14T21:46:30;15.73;;;13.20;;
19235;SDS011;9752;54.270;12.470;2023-03-14T21:51:35;15.43;;;12.00;;
19235;SDS011;9752;54.270;12.470;2023-03-14T21:56:38;16.07;;;12.77;;
19235;SDS011;9752;54.270;12.470;2023-03-14T22:01:40;15.77;;;13.27;;
19235;SDS011;9752;54.270;12.470;2023-03-14T22:06:42;15.87;;;13.30;;
19235;SDS011;9752;54.270;12.470;2023-03-14T22:11:45;16.23;;;12.27;;
19235;SDS011;9752;54.270;12.470;2023-03-14T22:16:47;15.13;;;13.10;;
19235;SDS011;9752;54.270;12.470;2023-03-14T22:21:48;15.63;;;14.00;;
19235;SDS011;9752;54.270;12.470;2023-03-14T22:26:52;15.73;;;14.13;;
19235;SDS011;9752;54.270;12.470;2023-03-14T22:31:54;21.00;;;14.40;;
19235;SDS011;9752;54.270;12.470;2023-03-14T22:36:56;16.67;;;13.80;;
19235;SDS011;9752;54.270;12.470;2023-03-14T22:41:59;18.57;;;13.23;;
19235;SDS011;9752;54.270;12.470;2023-03-14T22:47:02;19.13;;;13.07;;
19235;SDS011;9752;54.270;12.470;2023-03-14T22:52:04;14.03;;;12.60;;
19235;SDS011;9752;54.270;12.470;2023-03-14T22:57:07;15.00;;;13.70;;
19235;SDS011;9752;54.270;12.470;2023-03-14T23:02:09;13.93;;;12.63;;
19235;SDS011;9752;54.270;12.470;2023-03-14T23:07:10;13.63;;;12.27;;
19235;SDS011;9752;54.270;12.470;2023-03-14T23:12:13;13.80;;;12.43;;
19235;SDS011;9752;54.270;12.470;2023-03-14T23:17:16;13.57;;;11.90;;
19235;SDS011;9752;54.270;12.470;2023-03-14T23:22:18;18.43;;;13.57;;
19235;SDS011;9752;54.270;12.470;2023-03-14T23:27:21;26.10;;;14.17;;
19235;SDS011;9752;54.270;12.470;2023-03-14T23:32:23;14.57;;;13.47;;
19235;SDS011;9752;54.270;12.470;2023-03-14T23:37:25;17.43;;;12.57;;
19235;SDS011;9752;54.270;12.470;2023-03-14T23:42:28;13.47;;;12.30;;
19235;SDS011;9752;54.270;12.470;2023-03-14T23:47:30;12.57;;;11.30;;
19235;SDS011;9752;54.270;12.470;2023-03-14T23:52:32;12.37;;;11.27;;
19235;SDS011;9752;54.270;12.470;2023-03-14T23:57:35;11.50;;;10.33;;
